createdAt,value
2019-05-25T00:01:56.594Z,7.75
2019-05-25T00:04:24.461Z,7.62
2019-05-25T00:06:52.268Z,8.10
2019-05-25T00:09:21.011Z,8.33
2019-05-25T00:11:48.899Z,8.43
2019-05-25T00:14:16.735Z,8.10
2019-05-25T00:16:44.631Z,7.70
2019-05-25T00:19:12.341Z,7.97
2019-05-25T00:21:40.202Z,7.87
2019-05-25T00:24:12.081Z,8.40
2019-05-25T00:26:38.019Z,7.90
2019-05-25T00:29:05.944Z,8.07
2019-05-25T00:31:33.739Z,8.00
2019-05-25T00:34:01.578Z,8.10
2019-05-25T00:36:29.802Z,8.58
2019-05-25T00:38:57.591Z,8.15
2019-05-25T00:41:25.440Z,8.20
2019-05-25T00:43:53.257Z,8.40
2019-05-25T00:46:21.475Z,8.10
2019-05-25T00:48:49.537Z,8.58
2019-05-25T00:51:17.384Z,8.30
2019-05-25T00:53:45.201Z,8.38
2019-05-25T00:56:12.952Z,8.30
2019-05-25T00:58:40.811Z,8.53
2019-05-25T01:01:08.870Z,7.70
2019-05-25T01:03:36.794Z,8.20
2019-05-25T01:06:05.129Z,7.93
2019-05-25T01:08:33.240Z,7.85
2019-05-25T01:11:01.029Z,8.90
2019-05-25T01:13:29.984Z,8.03
2019-05-25T01:15:58.610Z,8.03
2019-05-25T01:18:26.739Z,7.97
2019-05-25T01:20:55.140Z,8.23
2019-05-25T01:23:23.173Z,8.43
2019-05-25T01:25:51.055Z,7.78
2019-05-25T01:28:18.701Z,8.20
2019-05-25T01:30:46.479Z,8.03
2019-05-25T01:33:15.407Z,8.10
2019-05-25T01:35:43.543Z,8.38
2019-05-25T01:38:11.416Z,8.18
2019-05-25T01:40:39.233Z,8.50
2019-05-25T01:43:06.980Z,8.28
2019-05-25T01:45:34.955Z,8.13
2019-05-25T01:48:02.708Z,8.20
2019-05-25T01:50:30.722Z,8.18
2019-05-25T01:52:58.674Z,8.18
2019-05-25T01:55:26.452Z,8.35
2019-05-25T01:57:54.480Z,8.43
2019-05-25T02:00:22.423Z,8.20
2019-05-25T02:02:50.407Z,8.70
2019-05-25T02:05:18.249Z,8.10
2019-05-25T02:07:46.363Z,8.65
2019-05-25T02:10:14.442Z,8.85
2019-05-25T02:12:42.191Z,8.78
2019-05-25T02:15:10.285Z,8.80
2019-05-25T02:17:38.105Z,8.63
2019-05-25T02:20:06.276Z,8.58
2019-05-25T02:22:34.230Z,9.03
2019-05-25T02:25:16.435Z,8.88
2019-05-25T02:27:31.534Z,8.88
2019-05-25T02:29:59.244Z,8.80
2019-05-25T02:32:27.023Z,8.85
2019-05-25T02:34:54.723Z,8.55
2019-05-25T02:37:22.517Z,8.40
2019-05-25T02:39:50.929Z,9.23
2019-05-25T02:42:18.843Z,8.40
2019-05-25T02:44:46.819Z,8.73
2019-05-25T02:47:14.659Z,8.78
2019-05-25T02:49:42.294Z,9.00
2019-05-25T02:52:10.604Z,9.00
2019-05-25T02:54:38.543Z,8.87
2019-05-25T02:57:06.776Z,9.20
2019-05-25T02:59:34.558Z,8.88
2019-05-25T03:02:02.299Z,9.10
2019-05-25T03:04:30.108Z,9.25
2019-05-25T03:06:57.766Z,9.05
2019-05-25T03:09:27.380Z,8.50
2019-05-25T03:11:58.414Z,8.28
2019-05-25T03:14:26.353Z,8.55
2019-05-25T03:16:54.983Z,8.35
2019-05-25T03:19:22.764Z,9.20
2019-05-25T03:21:50.561Z,9.20
2019-05-25T03:24:18.874Z,9.50
2019-05-25T03:26:46.582Z,9.25
2019-05-25T03:29:14.250Z,11.40
2019-05-25T03:31:41.964Z,11.30
2019-05-25T03:34:10.107Z,11.80
2019-05-25T03:36:38.931Z,10.20
2019-05-25T03:39:07.225Z,9.25
2019-05-25T03:41:35.276Z,9.47
2019-05-25T03:44:03.633Z,9.50
2019-05-25T03:46:32.664Z,9.65
2019-05-25T03:49:00.766Z,9.58
2019-05-25T03:51:28.403Z,9.70
2019-05-25T03:53:56.363Z,9.65
2019-05-25T03:56:24.024Z,13.05
2019-05-25T03:58:52.033Z,10.65
2019-05-25T04:01:20.095Z,13.65
2019-05-25T04:03:48.027Z,11.80
2019-05-25T04:06:15.782Z,11.57
2019-05-25T04:08:44.815Z,9.53
2019-05-25T04:11:12.552Z,10.05
2019-05-25T04:13:40.471Z,9.93
2019-05-25T04:16:08.426Z,10.08
2019-05-25T04:18:36.326Z,14.10
2019-05-25T04:21:03.963Z,9.65
2019-05-25T04:23:31.553Z,10.00
2019-05-25T04:25:59.276Z,10.05
2019-05-25T04:28:27.948Z,9.73
2019-05-25T04:30:55.741Z,10.28
2019-05-25T04:33:23.380Z,9.85
2019-05-25T04:35:51.513Z,10.58
2019-05-25T04:38:19.447Z,10.50
2019-05-25T04:40:47.416Z,11.10
2019-05-25T04:43:15.735Z,11.07
2019-05-25T04:45:43.462Z,10.50
2019-05-25T04:48:11.164Z,10.05
2019-05-25T04:50:39.380Z,9.28
2019-05-25T04:53:07.061Z,8.75
2019-05-25T04:55:34.897Z,9.70
2019-05-25T04:58:03.147Z,8.55
2019-05-25T05:00:30.999Z,8.30
2019-05-25T05:02:58.846Z,7.62
2019-05-25T05:05:26.475Z,8.38
2019-05-25T05:07:54.601Z,8.58
2019-05-25T05:10:22.929Z,8.50
2019-05-25T05:12:51.106Z,9.15
2019-05-25T05:15:19.173Z,8.80
2019-05-25T05:17:46.870Z,8.58
2019-05-25T05:20:15.593Z,8.55
2019-05-25T05:22:43.205Z,8.73
2019-05-25T05:25:12.324Z,9.08
2019-05-25T05:27:40.283Z,8.58
2019-05-25T05:30:08.213Z,8.30
2019-05-25T05:32:36.163Z,8.08
2019-05-25T05:35:05.142Z,8.00
2019-05-25T05:37:33.534Z,7.72
2019-05-25T05:40:01.429Z,7.87
2019-05-25T05:42:32.041Z,8.00
2019-05-25T05:45:02.165Z,7.80
2019-05-25T05:47:34.014Z,8.50
2019-05-25T05:50:02.451Z,9.53
2019-05-25T05:52:36.215Z,9.80
2019-05-25T05:55:04.536Z,9.08
2019-05-25T05:57:32.432Z,10.03
2019-05-25T06:00:00.390Z,10.47
2019-05-25T06:02:28.090Z,9.28
2019-05-25T06:04:55.874Z,8.70
2019-05-25T06:07:27.240Z,9.05
2019-05-25T06:09:53.911Z,8.80
2019-05-25T06:12:21.537Z,8.20
2019-05-25T06:14:49.109Z,8.30
2019-05-25T06:17:17.187Z,8.73
2019-05-25T06:19:45.175Z,9.70
2019-05-25T06:22:12.974Z,10.00
2019-05-25T06:24:41.716Z,10.60
2019-05-25T06:27:09.545Z,11.12
2019-05-25T06:29:37.166Z,11.53
2019-05-25T06:32:05.354Z,14.30
2019-05-25T06:34:33.877Z,13.08
2019-05-25T06:37:01.733Z,13.95
2019-05-25T06:39:29.604Z,12.70
2019-05-25T06:41:57.585Z,15.33
2019-05-25T06:44:25.371Z,15.30
2019-05-25T06:46:53.007Z,17.10
2019-05-25T06:49:20.615Z,16.87
2019-05-25T06:51:48.127Z,15.75
2019-05-25T06:54:16.039Z,14.73
2019-05-25T06:56:45.035Z,16.23
2019-05-25T06:59:12.824Z,15.15
2019-05-25T07:01:40.507Z,14.27
2019-05-25T07:04:09.141Z,14.47
2019-05-25T07:06:37.184Z,14.25
2019-05-25T07:09:06.668Z,14.80
2019-05-25T07:11:34.387Z,16.40
2019-05-25T07:14:02.287Z,15.65
2019-05-25T07:16:30.037Z,13.88
2019-05-25T07:18:57.948Z,14.90
2019-05-25T07:21:25.614Z,14.85
2019-05-25T07:23:53.405Z,14.28
2019-05-25T07:26:21.344Z,14.35
2019-05-25T07:28:49.007Z,13.58
2019-05-25T07:31:16.797Z,13.78
2019-05-25T07:33:45.874Z,13.20
2019-05-25T07:36:13.738Z,13.50
2019-05-25T07:38:41.947Z,13.48
2019-05-25T07:41:10.142Z,13.72
2019-05-25T07:43:38.462Z,12.37
2019-05-25T07:46:06.846Z,14.15
2019-05-25T07:48:34.675Z,13.60
2019-05-25T07:51:02.679Z,14.13
2019-05-25T07:53:30.651Z,14.90
2019-05-25T07:55:58.348Z,13.90
2019-05-25T07:58:26.399Z,14.63
2019-05-25T08:00:54.130Z,14.58
2019-05-25T08:03:22.020Z,15.00
2019-05-25T08:05:49.638Z,15.10
2019-05-25T08:08:18.758Z,15.32
2019-05-25T08:10:46.602Z,15.60
2019-05-25T08:13:14.773Z,14.60
2019-05-25T08:15:42.979Z,15.98
2019-05-25T08:18:11.280Z,14.93
2019-05-25T08:20:39.535Z,15.50
2019-05-25T08:23:07.167Z,14.67
2019-05-25T08:25:35.146Z,15.15
2019-05-25T08:28:02.795Z,15.80
2019-05-25T08:30:30.969Z,15.23
2019-05-25T08:32:58.842Z,15.85
2019-05-25T08:35:26.631Z,16.07
2019-05-25T08:37:54.978Z,20.10
2019-05-25T08:40:22.739Z,16.67
2019-05-25T08:42:50.557Z,15.58
2019-05-25T08:45:18.739Z,14.60
2019-05-25T08:47:47.588Z,14.55
2019-05-25T08:50:15.557Z,17.33
2019-05-25T08:52:43.368Z,15.78
2019-05-25T08:55:11.648Z,14.73
2019-05-25T08:57:39.682Z,15.50
2019-05-25T09:00:08.104Z,14.20
2019-05-25T09:02:36.497Z,13.85
2019-05-25T09:05:05.262Z,13.53
2019-05-25T09:07:33.602Z,13.43
2019-05-25T09:10:01.342Z,12.90
2019-05-25T09:12:29.263Z,13.10
2019-05-25T09:14:57.705Z,12.88
2019-05-25T09:17:25.439Z,13.58
2019-05-25T09:19:53.507Z,12.13
2019-05-25T09:22:21.306Z,12.30
2019-05-25T09:24:49.441Z,12.85
2019-05-25T09:27:17.371Z,13.03
2019-05-25T09:29:45.223Z,12.63
2019-05-25T09:32:13.513Z,13.45
2019-05-25T09:34:41.499Z,13.08
2019-05-25T09:37:09.106Z,11.97
2019-05-25T09:39:36.760Z,12.35
2019-05-25T09:42:05.007Z,11.40
2019-05-25T09:44:32.664Z,11.80
2019-05-25T09:47:00.452Z,11.03
2019-05-25T09:49:28.164Z,10.13
2019-05-25T09:51:56.189Z,11.00
2019-05-25T09:54:24.127Z,10.87
2019-05-25T09:59:20.677Z,11.37
2019-05-25T10:01:48.720Z,11.83
2019-05-25T10:04:16.829Z,11.03
2019-05-25T10:06:45.190Z,10.00
2019-05-25T10:09:13.324Z,11.00
2019-05-25T10:11:42.054Z,11.33
2019-05-25T10:14:09.698Z,11.77
2019-05-25T10:16:37.537Z,12.20
2019-05-25T10:19:05.560Z,11.13
2019-05-25T10:21:33.865Z,10.50
2019-05-25T10:24:01.890Z,9.63
2019-05-25T10:26:29.645Z,9.87
2019-05-25T10:28:57.543Z,8.97
2019-05-25T10:31:25.228Z,10.73
2019-05-25T10:33:52.967Z,8.37
2019-05-25T10:36:20.665Z,7.80
2019-05-25T10:38:50.272Z,7.57
2019-05-25T10:41:18.325Z,9.47
2019-05-25T10:43:45.975Z,9.73
2019-05-25T10:46:13.972Z,8.23
2019-05-25T10:48:42.739Z,9.43
2019-05-25T10:51:10.566Z,7.37
2019-05-25T10:53:38.270Z,8.20
2019-05-25T10:56:06.269Z,8.43
2019-05-25T10:58:34.232Z,10.97
2019-05-25T11:01:01.990Z,8.80
2019-05-25T11:03:29.795Z,8.73
2019-05-25T11:05:57.438Z,10.63
2019-05-25T11:08:25.927Z,10.03
2019-05-25T11:10:54.018Z,9.93
2019-05-25T11:13:22.004Z,10.98
2019-05-25T11:15:49.885Z,11.35
2019-05-25T11:18:18.075Z,11.37
2019-05-25T11:20:45.814Z,11.28
2019-05-25T11:23:13.483Z,11.90
2019-05-25T11:25:41.863Z,13.83
2019-05-25T11:28:09.595Z,13.60
2019-05-25T11:30:37.232Z,15.80
2019-05-25T11:33:04.995Z,14.50
2019-05-25T11:35:33.052Z,16.87
2019-05-25T11:38:00.742Z,15.08
2019-05-25T11:40:28.437Z,14.63
2019-05-25T11:42:56.512Z,13.80
2019-05-25T11:45:24.719Z,13.53
2019-05-25T11:47:52.542Z,15.53
2019-05-25T11:50:20.632Z,15.50
2019-05-25T11:52:48.734Z,14.73
2019-05-25T11:55:16.893Z,14.63
2019-05-25T11:57:45.400Z,12.82
2019-05-25T12:00:24.279Z,13.90
2019-05-25T12:02:44.262Z,12.85
2019-05-25T12:05:12.434Z,15.60
2019-05-25T12:07:43.801Z,14.58
2019-05-25T12:10:11.830Z,15.40
2019-05-25T12:12:39.666Z,15.48
2019-05-25T12:15:08.826Z,13.55
2019-05-25T12:17:36.611Z,13.38
2019-05-25T12:20:05.188Z,13.08
2019-05-25T12:22:33.061Z,13.80
2019-05-25T12:25:01.062Z,19.57
2019-05-25T12:27:28.760Z,18.23
2019-05-25T12:29:56.434Z,12.37
2019-05-25T12:32:24.508Z,14.03
2019-05-25T12:34:52.172Z,13.27
2019-05-25T12:37:20.134Z,15.32
2019-05-25T12:39:48.072Z,15.55
2019-05-25T12:42:15.766Z,16.55
2019-05-25T12:44:43.492Z,16.25
2019-05-25T12:47:11.247Z,15.63
2019-05-25T12:49:50.108Z,15.35
2019-05-25T12:52:08.780Z,16.12
2019-05-25T12:54:37.118Z,17.45
2019-05-25T12:57:04.738Z,18.32
2019-05-25T12:59:32.295Z,18.02
2019-05-25T13:02:00.639Z,18.52
2019-05-25T13:04:28.736Z,19.50
2019-05-25T13:06:56.396Z,20.85
2019-05-25T13:09:24.791Z,20.33
2019-05-25T13:11:52.533Z,20.60
2019-05-25T13:14:20.611Z,20.30
2019-05-25T13:16:48.491Z,19.35
2019-05-25T13:19:16.647Z,19.12
2019-05-25T13:21:44.534Z,17.35
2019-05-25T13:24:12.196Z,11.55
2019-05-25T13:26:39.917Z,16.00
2019-05-25T13:29:07.930Z,12.93
2019-05-25T13:31:36.932Z,12.40
2019-05-25T13:34:04.595Z,11.68
2019-05-25T13:36:32.259Z,13.40
2019-05-25T13:38:59.961Z,15.63
2019-05-25T13:41:27.871Z,17.12
2019-05-25T13:43:55.551Z,15.72
2019-05-25T13:46:23.709Z,14.20
2019-05-25T13:48:51.810Z,12.75
2019-05-25T13:51:19.900Z,12.18
2019-05-25T13:53:49.296Z,9.08
2019-05-25T13:56:17.285Z,7.20
2019-05-25T13:58:45.539Z,6.63
2019-05-25T14:01:27.498Z,6.58
2019-05-25T14:03:43.164Z,8.40
2019-05-25T14:06:11.466Z,10.55
2019-05-25T14:08:39.411Z,10.03
2019-05-25T14:11:07.299Z,10.75
2019-05-25T14:13:35.741Z,10.72
2019-05-25T14:16:06.966Z,11.48
2019-05-25T14:18:33.338Z,11.25
2019-05-25T14:21:01.048Z,11.00
2019-05-25T14:23:29.015Z,12.45
2019-05-25T14:25:57.246Z,11.57
2019-05-25T14:28:25.305Z,11.53
2019-05-25T14:30:52.980Z,11.97
2019-05-25T14:33:21.041Z,11.65
2019-05-25T14:35:49.263Z,12.18
2019-05-25T14:38:28.222Z,10.80
2019-05-25T14:40:56.356Z,10.80
2019-05-25T14:43:28.116Z,9.65
2019-05-25T14:45:56.459Z,8.45
2019-05-25T14:48:24.208Z,6.92
2019-05-25T14:50:52.172Z,5.50
2019-05-25T14:53:20.150Z,5.77
2019-05-25T14:55:47.732Z,5.57
2019-05-25T14:58:18.653Z,5.63
2019-05-25T15:00:46.536Z,6.37
2019-05-25T15:03:14.307Z,5.60
2019-05-25T15:05:42.619Z,5.53
2019-05-25T15:08:10.890Z,5.70
2019-05-25T15:10:38.924Z,6.20
2019-05-25T15:13:06.897Z,8.88
2019-05-25T15:15:35.395Z,7.95
2019-05-25T15:18:04.579Z,7.15
2019-05-25T15:20:32.549Z,8.28
2019-05-25T15:23:00.269Z,8.27
2019-05-25T15:25:28.072Z,8.78
2019-05-25T15:27:56.682Z,8.75
2019-05-25T15:30:25.164Z,8.78
2019-05-25T15:32:54.147Z,11.65
2019-05-25T15:35:21.912Z,11.67
2019-05-25T15:37:49.631Z,11.75
2019-05-25T15:40:20.774Z,11.85
2019-05-25T15:42:48.776Z,11.55
2019-05-25T15:45:16.883Z,10.85
2019-05-25T15:47:45.109Z,11.78
2019-05-25T15:50:15.343Z,11.88
2019-05-25T15:52:43.168Z,11.22
2019-05-25T15:55:11.248Z,11.57
2019-05-25T15:57:39.468Z,11.93
2019-05-25T16:00:08.487Z,11.00
2019-05-25T16:02:37.820Z,10.10
2019-05-25T16:05:05.857Z,10.80
2019-05-25T16:07:37.375Z,11.17
2019-05-25T16:10:07.091Z,10.58
2019-05-25T16:12:35.009Z,11.75
2019-05-25T16:15:07.050Z,10.65
2019-05-25T16:17:35.034Z,10.28
2019-05-25T16:20:03.428Z,10.60
2019-05-25T16:22:31.754Z,10.08
2019-05-25T16:25:00.500Z,9.93
2019-05-25T16:27:28.943Z,8.73
2019-05-25T17:09:15.190Z,12.67
2019-05-25T17:11:43.392Z,13.40
2019-05-25T17:14:11.436Z,13.53
2019-05-25T17:16:39.198Z,14.63
2019-05-25T17:19:06.909Z,14.15
2019-05-25T17:21:34.928Z,15.45
2019-05-25T17:24:03.066Z,15.03
2019-05-25T17:26:30.774Z,14.85
2019-05-25T17:28:58.619Z,14.80
2019-05-25T17:31:26.656Z,15.45
2019-05-25T17:33:54.956Z,14.33
2019-05-25T17:36:23.020Z,14.75
2019-05-25T17:38:51.534Z,14.50
2019-05-25T17:41:19.593Z,14.63
2019-05-25T17:43:47.988Z,17.07
2019-05-25T17:46:15.799Z,17.00
2019-05-25T17:48:43.536Z,15.98
2019-05-25T17:51:11.211Z,15.40
2019-05-25T17:53:38.875Z,15.15
2019-05-25T17:56:08.027Z,15.00
2019-05-25T17:58:35.968Z,15.63
2019-05-25T18:01:04.000Z,18.77
2019-05-25T18:03:31.846Z,18.52
2019-05-25T18:05:59.623Z,15.55
2019-05-25T18:08:27.419Z,15.80
2019-05-25T18:10:55.354Z,16.20
2019-05-25T18:13:23.546Z,13.80
2019-05-25T18:15:54.078Z,13.50
2019-05-25T18:18:22.430Z,12.80
2019-05-25T18:20:50.312Z,12.58
2019-05-25T18:23:18.286Z,13.18
2019-05-25T18:25:46.479Z,15.32
2019-05-25T18:28:14.198Z,15.20
2019-05-25T18:30:42.643Z,14.60
2019-05-25T18:33:10.965Z,14.40
2019-05-25T18:35:38.868Z,16.80
2019-05-25T18:38:06.976Z,15.03
2019-05-25T18:40:34.647Z,15.58
2019-05-25T18:43:02.805Z,14.93
2019-05-25T18:45:30.454Z,15.23
2019-05-25T18:47:58.231Z,14.95
2019-05-25T18:50:26.454Z,15.83
2019-05-25T18:52:54.458Z,14.90
2019-05-25T18:55:22.679Z,14.05
2019-05-25T18:57:50.508Z,15.28
2019-05-25T19:00:20.063Z,16.62
2019-05-25T19:02:47.643Z,17.43
2019-05-25T19:05:16.614Z,16.10
2019-05-25T19:07:44.470Z,16.30
2019-05-25T19:10:12.659Z,16.77
2019-05-25T19:12:40.757Z,16.73
2019-05-25T19:15:09.242Z,19.98
2019-05-25T19:17:36.978Z,21.15
2019-05-25T19:20:06.307Z,15.90
2019-05-25T19:22:34.487Z,14.23
2019-05-25T19:25:03.539Z,12.85
2019-05-25T19:27:31.545Z,12.80
2019-05-25T19:30:00.357Z,10.90
2019-05-25T19:32:27.962Z,10.53
2019-05-25T19:34:59.722Z,9.75
2019-05-25T19:37:25.839Z,11.97
2019-05-25T19:39:54.100Z,10.18
2019-05-25T19:42:22.179Z,10.80
2019-05-25T19:44:50.018Z,9.68
2019-05-25T19:47:17.867Z,9.30
2019-05-25T19:49:46.699Z,6.92
2019-05-25T19:52:15.554Z,6.95
2019-05-25T19:54:43.702Z,8.37
2019-05-25T19:57:11.635Z,8.55
2019-05-25T19:59:39.743Z,9.80
2019-05-25T20:02:09.409Z,9.70
2019-05-25T20:04:37.508Z,10.15
2019-05-25T20:07:05.196Z,12.40
2019-05-25T20:09:32.891Z,14.45
2019-05-25T20:12:00.814Z,15.05
2019-05-25T20:14:29.028Z,16.87
2019-05-25T20:16:57.609Z,18.23
2019-05-25T20:19:25.638Z,16.87
2019-05-25T20:21:53.439Z,17.50
2019-05-25T20:24:21.416Z,17.50
2019-05-25T20:26:49.241Z,17.40
2019-05-25T20:29:17.205Z,19.75
2019-05-25T20:31:45.037Z,23.73
2019-05-25T20:34:13.206Z,20.68
2019-05-25T20:36:41.153Z,19.45
2019-05-25T20:39:13.304Z,19.27
2019-05-25T20:41:41.349Z,19.27
2019-05-25T20:44:09.163Z,20.40
2019-05-25T20:46:37.168Z,20.10
2019-05-25T20:49:04.919Z,20.05
2019-05-25T20:51:33.520Z,20.82
2019-05-25T20:54:01.943Z,21.62
2019-05-25T20:56:30.635Z,24.10
2019-05-25T20:58:58.599Z,21.10
2019-05-25T21:01:27.847Z,21.48
2019-05-25T21:03:56.003Z,20.50
2019-05-25T21:06:24.598Z,20.15
2019-05-25T21:08:52.297Z,21.23
2019-05-25T21:11:20.525Z,20.10
2019-05-25T21:13:48.275Z,20.20
2019-05-25T21:16:16.118Z,20.48
2019-05-25T21:18:44.064Z,20.08
2019-05-25T21:21:12.216Z,20.65
2019-05-25T21:23:40.644Z,22.93
2019-05-25T21:26:08.464Z,23.80
2019-05-25T21:28:36.133Z,22.15
2019-05-25T21:31:04.390Z,23.27
2019-05-25T21:33:32.237Z,19.60
2019-05-25T21:36:08.118Z,19.17
2019-05-25T21:38:30.151Z,18.92
2019-05-25T21:40:58.187Z,18.73
2019-05-25T21:43:26.230Z,21.07
2019-05-25T21:45:54.215Z,20.43
2019-05-25T21:48:22.303Z,20.40
2019-05-25T21:50:49.875Z,20.68
2019-05-25T21:53:17.423Z,20.48
2019-05-25T21:55:45.458Z,19.95
2019-05-25T21:58:13.403Z,19.65
2019-05-25T22:00:41.586Z,19.87
2019-05-25T22:03:10.275Z,19.48
2019-05-25T22:05:38.045Z,19.23
2019-05-25T22:08:05.755Z,19.05
2019-05-25T22:10:34.844Z,18.20
2019-05-25T22:13:02.678Z,18.52
2019-05-25T22:15:31.159Z,17.87
2019-05-25T22:17:58.856Z,17.62
2019-05-25T22:20:26.613Z,17.90
2019-05-25T22:22:55.057Z,18.02
2019-05-25T22:25:22.831Z,18.52
2019-05-25T22:27:50.753Z,18.85
2019-05-25T22:30:18.908Z,19.55
2019-05-25T22:32:47.257Z,18.87
2019-05-25T22:35:16.081Z,18.90
2019-05-25T22:37:44.136Z,18.57
2019-05-25T22:40:12.369Z,18.45
2019-05-25T22:42:40.182Z,19.60
2019-05-25T22:45:08.367Z,20.30
2019-05-25T22:47:36.115Z,19.37
2019-05-25T22:50:04.474Z,18.30
2019-05-25T22:52:32.134Z,19.10
2019-05-25T22:54:59.911Z,17.67
2019-05-25T22:57:27.825Z,17.92
2019-05-25T22:59:55.898Z,17.30
2019-05-25T23:02:23.662Z,17.60
2019-05-25T23:04:51.655Z,17.17
2019-05-25T23:07:19.563Z,16.87
2019-05-25T23:09:47.337Z,16.15
2019-05-25T23:12:14.899Z,16.17
2019-05-25T23:14:42.570Z,16.30
2019-05-25T23:17:10.453Z,15.78
2019-05-25T23:19:38.268Z,16.02
2019-05-25T23:22:06.328Z,15.83
2019-05-25T23:24:34.027Z,15.40
2019-05-25T23:27:02.796Z,15.80
2019-05-25T23:29:30.674Z,15.23
2019-05-25T23:31:58.623Z,15.90
2019-05-25T23:34:26.412Z,16.15
2019-05-25T23:36:54.123Z,14.70
2019-05-25T23:39:21.900Z,15.03
2019-05-25T23:41:49.730Z,15.60
2019-05-25T23:44:17.412Z,15.13
2019-05-25T23:46:45.369Z,14.63
2019-05-25T23:49:13.132Z,15.00
2019-05-25T23:51:40.769Z,14.50
2019-05-25T23:54:08.444Z,15.05
2019-05-25T23:56:36.651Z,14.70
2019-05-25T23:59:04.294Z,14.55
